createdAt,value
2023-04-18T00:00:12.771Z,5.90
2023-04-18T00:03:04.847Z,5.30
2023-04-18T00:05:34.602Z,5.50
2023-04-18T00:08:05.554Z,5.60
2023-04-18T00:10:37.310Z,5.80
2023-04-18T00:13:08.774Z,5.30
2023-04-18T00:15:38.894Z,4.90
2023-04-18T00:18:11.068Z,5.90
2023-04-18T00:20:42.983Z,6.30
2023-04-18T00:23:15.378Z,6.30
2023-04-18T00:25:46.238Z,5.60
2023-04-18T00:28:15.702Z,6.70
2023-04-18T00:30:47.298Z,5.80
2023-04-18T00:33:19.698Z,6.30
2023-04-18T00:35:50.522Z,6.60
2023-04-18T00:38:20.024Z,5.90
2023-04-18T00:40:50.633Z,6.50
2023-04-18T00:43:24.954Z,5.70
2023-04-18T00:45:54.471Z,6.30
2023-04-18T00:48:24.885Z,5.80
2023-04-18T00:50:57.934Z,6.50
2023-04-18T00:53:29.831Z,6.20
2023-04-18T00:56:02.528Z,5.30
2023-04-18T00:58:35.026Z,5.50
2023-04-18T01:01:11.095Z,5.80
2023-04-18T01:03:41.700Z,5.80
2023-04-18T01:06:13.998Z,5.80
2023-04-18T01:08:45.032Z,5.60
2023-04-18T01:11:18.505Z,6.00
2023-04-18T01:14:14.686Z,6.90
2023-04-18T01:16:47.573Z,5.80
2023-04-18T01:19:19.798Z,5.50
2023-04-18T01:21:50.894Z,6.50
2023-04-18T01:24:20.419Z,5.20
2023-04-18T01:26:49.934Z,5.80
2023-04-18T01:29:19.367Z,6.50
2023-04-18T01:31:53.921Z,5.80
2023-04-18T01:34:23.816Z,5.10
2023-04-18T01:36:53.509Z,5.40
2023-04-18T01:39:23.922Z,6.20
2023-04-18T01:42:00.132Z,7.20
2023-04-18T01:44:31.029Z,5.70
2023-04-18T01:47:00.699Z,6.50
2023-04-18T01:49:30.115Z,7.30
2023-04-18T01:52:01.286Z,7.20
2023-04-18T01:54:33.761Z,6.50
2023-04-18T01:57:05.974Z,6.80
2023-04-18T01:59:38.318Z,7.30
2023-04-18T02:02:08.220Z,6.60
2023-04-18T02:04:38.330Z,7.00
2023-04-18T02:07:07.684Z,7.10
2023-04-18T02:09:38.386Z,7.70
2023-04-18T02:12:08.002Z,9.10
2023-04-18T02:14:38.060Z,9.20
2023-04-18T02:17:11.004Z,8.40
2023-04-18T02:19:41.332Z,8.00
2023-04-18T02:22:11.640Z,7.70
2023-04-18T02:24:41.780Z,8.20
2023-04-18T02:27:12.102Z,8.00
2023-04-18T02:29:43.218Z,8.10
2023-04-18T02:32:12.716Z,8.40
2023-04-18T02:34:42.460Z,8.70
2023-04-18T02:37:12.081Z,8.50
2023-04-18T02:39:43.158Z,8.60
2023-04-18T02:42:12.609Z,10.50
2023-04-18T02:44:42.025Z,8.90
2023-04-18T02:47:11.814Z,9.60
2023-04-18T02:49:44.309Z,10.00
2023-04-18T02:52:15.199Z,9.70
2023-04-18T02:54:46.396Z,8.50
2023-04-18T02:57:18.822Z,9.30
2023-04-18T03:00:05.278Z,10.00
2023-04-18T03:02:53.923Z,10.10
2023-04-18T03:05:37.500Z,10.20
2023-04-18T03:08:07.912Z,11.60
2023-04-18T03:10:39.354Z,10.20
2023-04-18T03:13:09.303Z,10.70
2023-04-18T03:15:40.160Z,11.30
2023-04-18T03:18:12.881Z,10.40
2023-04-18T03:20:42.821Z,9.60
2023-04-18T03:23:13.436Z,10.80
2023-04-18T03:25:42.913Z,10.30
2023-04-18T03:28:13.866Z,10.10
2023-04-18T03:30:44.787Z,9.70
2023-04-18T03:33:17.190Z,10.40
2023-04-18T03:35:48.573Z,10.90
2023-04-18T03:38:18.112Z,11.10
2023-04-18T03:40:50.430Z,11.10
2023-04-18T03:43:28.413Z,10.10
2023-04-18T03:45:58.862Z,9.70
2023-04-18T03:48:29.372Z,9.80
2023-04-18T03:51:01.718Z,10.90
2023-04-18T03:53:31.568Z,12.70
2023-04-18T03:56:01.102Z,14.10
2023-04-18T03:58:43.583Z,13.30
2023-04-18T04:01:14.518Z,12.10
2023-04-18T04:03:44.101Z,11.70
2023-04-18T04:06:14.277Z,11.80
2023-04-18T04:08:43.906Z,11.80
2023-04-18T04:11:13.711Z,13.00
2023-04-18T04:13:43.656Z,13.00
2023-04-18T04:16:15.712Z,12.30
2023-04-18T04:18:45.944Z,11.40
2023-04-18T04:21:15.940Z,12.10
2023-04-18T04:23:49.637Z,11.50
2023-04-18T04:26:43.424Z,11.40
2023-04-18T04:29:19.423Z,10.50
2023-04-18T04:31:51.305Z,11.80
2023-04-18T04:34:28.187Z,12.20
2023-04-18T04:36:58.021Z,11.00
2023-04-18T04:39:28.753Z,12.30
2023-04-18T04:42:54.353Z,11.20
2023-04-18T04:45:39.752Z,10.70
2023-04-18T04:48:10.008Z,10.00
2023-04-18T04:50:42.335Z,11.00
2023-04-18T04:53:15.158Z,10.30
2023-04-18T04:55:46.351Z,10.20
2023-04-18T04:58:16.386Z,9.50
2023-04-18T05:01:07.868Z,16.90
2023-04-18T05:03:38.650Z,10.00
2023-04-18T05:06:09.156Z,11.00
2023-04-18T05:08:41.073Z,8.90
2023-04-18T05:11:11.511Z,9.70
2023-04-18T05:13:40.898Z,9.30
2023-04-18T05:16:10.930Z,8.80
2023-04-18T05:18:42.670Z,8.30
2023-04-18T05:21:12.192Z,8.10
2023-04-18T05:23:41.637Z,8.10
2023-04-18T05:26:11.362Z,8.50
2023-04-18T05:28:42.111Z,8.00
2023-04-18T05:31:13.995Z,8.30
2023-04-18T05:33:44.093Z,8.10
2023-04-18T05:36:13.799Z,8.40
2023-04-18T05:38:43.356Z,8.90
2023-04-18T05:41:12.840Z,8.10
2023-04-18T05:43:48.406Z,8.00
2023-04-18T05:46:28.955Z,7.50
2023-04-18T05:48:58.886Z,7.70
2023-04-18T05:51:28.998Z,7.00
2023-04-18T05:54:00.895Z,7.40
2023-04-18T05:56:30.830Z,6.50
2023-04-18T05:59:01.968Z,6.70
2023-04-18T06:01:33.529Z,6.60
2023-04-18T06:04:03.248Z,6.10
2023-04-18T06:06:36.113Z,6.30
2023-04-18T06:09:09.009Z,6.90
2023-04-18T06:11:40.267Z,7.50
2023-04-18T06:14:12.416Z,5.90
2023-04-18T06:16:44.806Z,5.40
2023-04-18T06:19:22.285Z,5.10
2023-04-18T06:21:53.962Z,5.00
2023-04-18T06:24:24.788Z,5.70
2023-04-18T06:26:58.017Z,6.50
2023-04-18T06:29:30.573Z,5.30
2023-04-18T06:32:00.247Z,4.20
2023-04-18T06:34:30.498Z,4.80
2023-04-18T06:37:04.934Z,4.80
2023-04-18T06:39:37.916Z,4.70
2023-04-18T06:42:11.034Z,4.40
2023-04-18T06:44:52.004Z,4.50
2023-04-18T06:47:22.895Z,4.30
2023-04-18T06:49:53.377Z,4.80
2023-04-18T06:52:25.616Z,5.40
2023-04-18T06:54:55.067Z,5.10
2023-04-18T06:57:25.764Z,4.20
2023-04-18T06:59:56.371Z,5.60
2023-04-18T07:02:25.924Z,4.10
2023-04-18T07:04:55.439Z,4.40
2023-04-18T07:07:26.583Z,5.10
2023-04-18T07:09:56.035Z,6.10
2023-04-18T07:12:25.792Z,4.80
2023-04-18T07:14:55.369Z,5.00
2023-04-18T07:17:24.904Z,4.90
2023-04-18T07:19:54.367Z,4.60
2023-04-18T07:22:24.068Z,5.10
2023-04-18T07:24:54.249Z,4.30
2023-04-18T07:27:24.114Z,5.50
2023-04-18T07:29:53.819Z,4.40
2023-04-18T07:32:23.982Z,4.20
2023-04-18T07:34:57.588Z,6.00
2023-04-18T07:37:27.201Z,4.90
2023-04-18T07:39:56.763Z,4.00
2023-04-18T07:42:27.471Z,5.00
2023-04-18T07:45:01.026Z,5.20
2023-04-18T07:47:34.734Z,4.30
2023-04-18T07:50:05.251Z,4.80
2023-04-18T07:52:50.558Z,4.80
2023-04-18T07:55:24.332Z,4.80
2023-04-18T07:57:55.272Z,5.50
2023-04-18T08:00:26.966Z,5.00
2023-04-18T08:03:09.955Z,7.10
2023-04-18T08:05:51.524Z,6.20
2023-04-18T08:08:23.190Z,4.40
2023-04-18T08:11:01.106Z,9.40
2023-04-18T08:13:34.816Z,4.30
2023-04-18T08:16:04.650Z,4.30
2023-04-18T08:18:36.218Z,4.40
2023-04-18T08:21:07.938Z,3.80
2023-04-18T08:23:49.013Z,6.00
2023-04-18T08:26:21.322Z,4.20
2023-04-18T08:28:52.025Z,4.60
2023-04-18T08:31:22.673Z,4.00
2023-04-18T08:33:54.613Z,3.70
2023-04-18T08:36:25.163Z,3.90
2023-04-18T08:38:56.663Z,3.30
2023-04-18T08:41:27.387Z,3.60
2023-04-18T08:43:57.209Z,4.20
2023-04-18T08:46:27.304Z,3.80
2023-04-18T08:48:59.853Z,4.30
2023-04-18T08:51:40.472Z,12.20
2023-04-18T08:54:10.807Z,4.70
2023-04-18T08:56:41.203Z,4.40
2023-04-18T08:59:11.840Z,4.20
2023-04-18T09:01:59.695Z,4.30
2023-04-18T09:04:49.552Z,3.80
2023-04-18T09:07:29.153Z,3.70
2023-04-18T09:09:58.920Z,4.80
2023-04-18T09:12:34.082Z,4.00
2023-04-18T09:15:15.673Z,3.70
2023-04-18T09:17:51.097Z,4.50
2023-04-18T09:20:38.290Z,4.00
2023-04-18T09:23:21.907Z,4.30
2023-04-18T09:25:52.591Z,3.80
2023-04-18T09:28:31.370Z,3.70
2023-04-18T09:31:15.758Z,4.40
2023-04-18T09:33:57.529Z,3.90
2023-04-18T09:36:28.105Z,5.00
2023-04-18T09:38:57.805Z,5.10
2023-04-18T09:41:27.771Z,3.00
2023-04-18T09:44:14.917Z,4.40
2023-04-18T09:46:50.365Z,6.70
2023-04-18T09:49:21.650Z,4.00
2023-04-18T09:51:55.093Z,3.70
2023-04-18T09:54:26.244Z,4.60
2023-04-18T09:56:58.178Z,3.90
2023-04-18T09:59:55.368Z,7.70
2023-04-18T10:02:29.676Z,3.40
2023-04-18T10:05:09.799Z,3.90
2023-04-18T10:07:45.868Z,3.50
2023-04-18T10:10:17.232Z,4.00
2023-04-18T10:12:54.423Z,3.90
2023-04-18T10:15:27.842Z,4.10
2023-04-18T10:18:05.864Z,3.70
2023-04-18T10:20:36.558Z,3.80
2023-04-18T10:23:41.060Z,10.30
2023-04-18T10:26:11.965Z,5.20
2023-04-18T10:29:01.730Z,7.90
2023-04-18T10:31:41.576Z,4.20
2023-04-18T10:34:20.061Z,3.20
2023-04-18T10:37:07.509Z,4.30
2023-04-18T10:40:07.573Z,4.00
2023-04-18T10:45:26.145Z,3.90
2023-04-18T10:48:27.988Z,4.70
2023-04-18T10:51:23.849Z,5.00
2023-04-18T10:53:59.593Z,4.70
2023-04-18T10:56:30.355Z,3.20
2023-04-18T10:59:06.063Z,4.00
2023-04-18T11:01:39.814Z,4.30
2023-04-18T11:04:15.889Z,3.70
2023-04-18T11:06:58.466Z,4.20
2023-04-18T11:09:28.133Z,3.30
2023-04-18T11:12:10.994Z,4.70
2023-04-18T11:14:44.271Z,3.90
2023-04-18T11:17:36.058Z,3.70
2023-04-18T11:20:15.270Z,9.40
2023-04-18T11:22:54.011Z,3.70
2023-04-18T11:25:37.013Z,4.60
2023-04-18T11:28:06.505Z,3.80
2023-04-18T11:30:42.131Z,4.20
2023-04-18T11:33:14.082Z,2.40
2023-04-18T11:35:49.337Z,3.80
2023-04-18T11:38:22.217Z,2.20
2023-04-18T11:40:54.973Z,3.10
2023-04-18T11:43:25.906Z,3.10
2023-04-18T11:45:58.181Z,3.60
2023-04-18T11:48:45.638Z,3.50
2023-04-18T11:51:37.054Z,4.00
2023-04-18T11:54:06.806Z,3.60
2023-04-18T11:56:36.935Z,3.00
2023-04-18T11:59:10.098Z,3.30
2023-04-18T12:01:39.816Z,3.20
2023-04-18T12:04:09.937Z,3.80
2023-04-18T12:06:54.114Z,3.50
2023-04-18T12:09:27.825Z,3.10
2023-04-18T12:12:04.295Z,3.00
2023-04-18T12:14:36.105Z,3.90
2023-04-18T12:17:05.940Z,4.60
2023-04-18T12:19:35.654Z,2.90
2023-04-18T12:22:10.169Z,4.80
2023-04-18T12:27:09.376Z,3.30
2023-04-18T12:29:39.975Z,3.50
2023-04-18T12:32:11.216Z,4.50
2023-04-18T12:34:40.879Z,3.10
2023-04-18T12:37:10.410Z,2.80
2023-04-18T12:39:39.928Z,3.50
2023-04-18T12:42:09.528Z,3.30
2023-04-18T12:44:40.392Z,7.60
2023-04-18T12:47:15.641Z,4.70
2023-04-18T12:49:45.755Z,3.10
2023-04-18T12:52:16.738Z,3.30
2023-04-18T12:54:47.302Z,3.60
2023-04-18T12:57:18.256Z,3.00
2023-04-18T12:59:48.073Z,3.50
2023-04-18T13:02:20.899Z,3.80
2023-04-18T13:04:56.272Z,4.20
2023-04-18T13:07:28.581Z,3.70
2023-04-18T13:09:59.311Z,4.40
2023-04-18T13:12:33.319Z,4.00
2023-04-18T13:15:03.925Z,4.30
2023-04-18T13:17:41.818Z,4.00
2023-04-18T13:20:14.152Z,4.80
2023-04-18T13:22:49.687Z,3.10
2023-04-18T13:25:20.223Z,4.30
2023-04-18T13:27:51.112Z,3.80
2023-04-18T13:30:21.330Z,3.30
2023-04-18T13:32:51.900Z,3.50
2023-04-18T13:35:22.208Z,6.20
2023-04-18T13:37:51.749Z,4.70
2023-04-18T13:40:21.741Z,5.00
2023-04-18T13:42:51.744Z,3.70
2023-04-18T13:45:21.384Z,3.60
2023-04-18T13:47:51.053Z,3.20
2023-04-18T13:50:20.852Z,3.40
2023-04-18T13:52:52.190Z,3.00
2023-04-18T13:55:21.952Z,3.20
2023-04-18T13:57:56.692Z,5.90
2023-04-18T14:00:27.069Z,2.50
2023-04-18T14:02:57.813Z,3.40
2023-04-18T14:05:27.606Z,2.70
2023-04-18T14:08:02.503Z,3.90
2023-04-18T14:10:32.085Z,3.30
2023-04-18T14:13:03.026Z,3.10
2023-04-18T14:15:34.014Z,3.30
2023-04-18T14:18:03.682Z,3.60
2023-04-18T14:20:37.598Z,4.10
2023-04-18T14:23:07.480Z,3.70
2023-04-18T14:25:38.549Z,3.70
2023-04-18T14:28:11.183Z,3.40
2023-04-18T14:30:40.934Z,2.70
2023-04-18T14:33:10.467Z,2.70
2023-04-18T14:35:40.543Z,3.40
2023-04-18T14:38:11.715Z,3.30
2023-04-18T14:40:42.183Z,3.40
2023-04-18T14:43:12.174Z,3.30
2023-04-18T14:45:41.630Z,3.20
2023-04-18T14:48:11.060Z,2.70
2023-04-18T14:50:40.970Z,4.10
2023-04-18T14:53:14.543Z,3.20
2023-04-18T14:55:47.614Z,3.20
2023-04-18T14:58:17.237Z,5.80
2023-04-18T15:00:46.802Z,3.10
2023-04-18T15:03:19.569Z,3.60
2023-04-18T15:05:49.517Z,3.80
2023-04-18T15:08:19.109Z,3.30
2023-04-18T15:10:48.919Z,3.60
2023-04-18T15:13:21.362Z,3.80
2023-04-18T15:15:56.807Z,3.60
2023-04-18T15:18:28.085Z,2.90
2023-04-18T15:21:02.728Z,3.40
2023-04-18T15:23:33.473Z,3.40
2023-04-18T15:26:05.126Z,3.50
2023-04-18T15:28:36.655Z,3.20
2023-04-18T15:31:08.013Z,10.70
2023-04-18T15:33:38.378Z,4.80
2023-04-18T15:36:09.668Z,3.30
2023-04-18T15:38:40.215Z,4.50
2023-04-18T15:41:09.727Z,3.70
2023-04-18T15:43:42.025Z,3.30
2023-04-18T15:46:16.515Z,3.50
2023-04-18T15:48:50.041Z,3.10
2023-04-18T15:51:31.041Z,3.80
2023-04-18T15:54:01.402Z,4.70
2023-04-18T15:56:33.151Z,4.50
2023-04-18T15:59:08.490Z,5.40
2023-04-18T16:01:37.931Z,5.20
2023-04-18T16:04:08.387Z,5.00
2023-04-18T16:06:40.407Z,5.50
2023-04-18T16:09:10.648Z,4.70
2023-04-18T16:11:44.051Z,4.70
2023-04-18T16:14:15.159Z,5.30
2023-04-18T16:16:44.817Z,7.20
2023-04-18T16:19:17.174Z,6.80
2023-04-18T16:21:49.382Z,8.80
2023-04-18T16:24:21.118Z,6.20
2023-04-18T16:26:53.356Z,6.30
2023-04-18T16:29:24.003Z,7.30
2023-04-18T16:31:54.286Z,5.00
2023-04-18T16:34:24.088Z,4.90
2023-04-18T16:36:55.073Z,5.80
2023-04-18T16:39:28.237Z,4.30
2023-04-18T16:42:07.923Z,4.10
2023-04-18T16:45:04.698Z,4.80
2023-04-18T16:47:36.466Z,5.10
2023-04-18T16:50:08.232Z,3.90
2023-04-18T16:52:39.072Z,3.90
2023-04-18T16:55:11.547Z,3.60
2023-04-18T16:57:42.619Z,3.80
2023-04-18T17:00:16.685Z,4.10
2023-04-18T17:02:47.415Z,4.30
2023-04-18T17:05:17.759Z,3.80
2023-04-18T17:07:49.922Z,4.10
2023-04-18T17:10:19.797Z,4.40
2023-04-18T17:12:49.563Z,4.40
2023-04-18T17:15:22.056Z,3.60
2023-04-18T17:17:52.528Z,4.40
2023-04-18T17:20:23.766Z,3.80
2023-04-18T17:22:57.635Z,3.90
2023-04-18T17:25:28.076Z,4.10
2023-04-18T17:27:57.618Z,3.30
2023-04-18T17:30:27.153Z,3.50
2023-04-18T17:32:56.678Z,3.80
2023-04-18T17:35:26.049Z,4.00
2023-04-18T17:37:56.734Z,4.20
2023-04-18T17:40:26.397Z,4.10
2023-04-18T17:42:55.786Z,4.10
2023-04-18T17:45:25.237Z,4.20
2023-04-18T17:47:57.706Z,3.80
2023-04-18T17:50:27.254Z,3.70
2023-04-18T17:52:58.335Z,4.40
2023-04-18T17:55:29.858Z,4.90
2023-04-18T17:58:00.199Z,5.10
2023-04-18T18:00:30.797Z,4.40
2023-04-18T18:03:01.942Z,4.10
2023-04-18T18:05:31.782Z,4.90
2023-04-18T18:08:01.187Z,4.80
2023-04-18T18:10:34.117Z,5.20
2023-04-18T18:13:04.028Z,4.80
2023-04-18T18:15:34.778Z,4.40
2023-04-18T18:18:04.383Z,5.00
2023-04-18T18:20:36.637Z,5.50
2023-04-18T18:23:06.967Z,5.00
2023-04-18T18:25:41.740Z,5.30
2023-04-18T18:28:12.150Z,5.20
2023-04-18T18:30:42.501Z,5.50
2023-04-18T18:33:11.900Z,5.10
2023-04-18T18:35:42.543Z,4.60
2023-04-18T18:38:13.259Z,5.70
2023-04-18T18:40:42.724Z,5.90
2023-04-18T18:43:13.350Z,5.40
2023-04-18T18:45:44.341Z,5.60
2023-04-18T18:48:15.061Z,5.30
2023-04-18T18:50:50.488Z,5.30
2023-04-18T18:53:23.738Z,5.30
2023-04-18T18:55:56.660Z,4.70
2023-04-18T18:58:26.221Z,5.30
2023-04-18T19:00:56.398Z,4.90
2023-04-18T19:03:26.174Z,5.10
2023-04-18T19:06:04.043Z,4.70
2023-04-18T19:08:34.269Z,5.50
2023-04-18T19:11:04.601Z,6.00
2023-04-18T19:13:37.219Z,5.60
2023-04-18T19:16:07.580Z,4.70
2023-04-18T19:18:41.589Z,5.00
2023-04-18T19:21:12.309Z,5.20
2023-04-18T19:23:42.331Z,5.10
2023-04-18T19:26:12.101Z,4.90
2023-04-18T19:28:41.634Z,4.90
2023-04-18T19:31:11.094Z,4.00
2023-04-18T19:33:41.585Z,4.30
2023-04-18T19:36:11.099Z,4.60
2023-04-18T19:38:43.393Z,5.00
2023-04-18T19:41:12.874Z,4.50
2023-04-18T19:43:43.851Z,4.60
2023-04-18T19:46:13.525Z,4.80
2023-04-18T19:48:45.677Z,4.60
2023-04-18T19:51:15.435Z,5.40
2023-04-18T19:53:44.939Z,5.10
2023-04-18T19:56:15.124Z,5.10
2023-04-18T19:58:49.027Z,4.00
2023-04-18T20:01:20.326Z,4.70
2023-04-18T20:03:50.422Z,4.60
2023-04-18T20:06:24.810Z,4.40
2023-04-18T20:08:55.535Z,4.30
2023-04-18T20:11:25.384Z,4.70
2023-04-18T20:13:56.189Z,4.40
2023-04-18T20:16:25.776Z,4.60
2023-04-18T20:18:55.281Z,5.00
2023-04-18T20:21:27.023Z,4.70
2023-04-18T20:23:58.211Z,5.10
2023-04-18T20:26:28.843Z,4.00
2023-04-18T20:28:58.409Z,4.60
2023-04-18T20:31:27.973Z,4.50
2023-04-18T20:33:59.429Z,4.10
2023-04-18T20:36:31.249Z,4.60
2023-04-18T20:39:02.509Z,4.50
2023-04-18T20:41:32.725Z,5.40
2023-04-18T20:44:05.535Z,4.60
2023-04-18T20:46:36.538Z,4.80
2023-04-18T20:49:10.305Z,5.20
2023-04-18T20:51:41.428Z,4.50
2023-04-18T20:54:11.189Z,5.10
2023-04-18T20:56:40.570Z,4.80
2023-04-18T20:59:10.926Z,4.60
2023-04-18T21:01:41.414Z,5.20
2023-04-18T21:04:11.033Z,4.20
2023-04-18T21:06:40.788Z,4.50
2023-04-18T21:09:10.569Z,5.00
2023-04-18T21:11:41.283Z,4.90
2023-04-18T21:14:10.965Z,4.80
2023-04-18T21:16:42.023Z,4.50
2023-04-18T21:19:11.667Z,4.90
2023-04-18T21:21:42.669Z,4.90
2023-04-18T21:24:13.010Z,4.90
2023-04-18T21:26:45.781Z,4.90
2023-04-18T21:29:17.218Z,4.80
2023-04-18T21:31:49.138Z,4.60
2023-04-18T21:34:18.797Z,4.40
2023-04-18T21:36:48.408Z,4.70
2023-04-18T21:39:17.917Z,4.50
2023-04-18T21:41:48.433Z,5.20
2023-04-18T21:44:19.024Z,5.70
2023-04-18T21:46:48.624Z,5.10
2023-04-18T21:49:20.501Z,5.20
2023-04-18T21:51:50.220Z,5.30
2023-04-18T21:54:21.262Z,5.60
2023-04-18T21:56:50.553Z,5.10
2023-04-18T21:59:21.255Z,6.10
2023-04-18T22:01:52.215Z,5.40
2023-04-18T22:04:26.204Z,5.30
2023-04-18T22:06:57.702Z,6.00
2023-04-18T22:09:27.114Z,6.30
2023-04-18T22:11:57.077Z,5.60
2023-04-18T22:14:28.373Z,6.90
2023-04-18T22:16:59.051Z,6.70
2023-04-18T22:19:29.629Z,6.90
2023-04-18T22:22:00.166Z,7.40
2023-04-18T22:24:29.597Z,7.70
2023-04-18T22:26:59.566Z,6.30
2023-04-18T22:29:29.269Z,6.40
2023-04-18T22:31:59.141Z,7.10
2023-04-18T22:34:31.073Z,6.40
2023-04-18T22:37:10.479Z,6.80
2023-04-18T22:39:42.053Z,6.70
2023-04-18T22:42:11.510Z,6.10
2023-04-18T22:44:41.026Z,7.00
2023-04-18T22:47:10.412Z,7.10
2023-04-18T22:49:40.663Z,6.50
2023-04-18T22:52:10.217Z,6.50
2023-04-18T22:54:40.302Z,6.20
2023-04-18T22:57:09.757Z,6.90
2023-04-18T22:59:39.873Z,6.80
2023-04-18T23:02:10.773Z,7.30
2023-04-18T23:04:42.559Z,6.90
2023-04-18T23:07:12.270Z,7.00
2023-04-18T23:09:42.030Z,8.60
2023-04-18T23:12:12.807Z,8.30
2023-04-18T23:14:42.373Z,8.20
2023-04-18T23:17:12.959Z,8.40
2023-04-18T23:19:45.259Z,7.70
2023-04-18T23:22:14.623Z,8.00
2023-04-18T23:24:45.368Z,9.70
2023-04-18T23:27:15.705Z,8.10
2023-04-18T23:29:49.001Z,9.00
2023-04-18T23:32:18.278Z,9.20
2023-04-18T23:34:47.733Z,7.00
2023-04-18T23:37:17.922Z,8.80
2023-04-18T23:39:48.064Z,7.10
2023-04-18T23:42:17.809Z,7.00
2023-04-18T23:44:47.170Z,8.40
2023-04-18T23:47:16.617Z,7.80
2023-04-18T23:49:46.094Z,7.70
2023-04-18T23:52:15.580Z,8.50
2023-04-18T23:54:45.879Z,8.20
2023-04-18T23:57:15.653Z,7.70
2023-04-18T23:59:45.085Z,7.70
